createdAt,value
2018-02-25T00:00:46.949Z,95726
2018-02-25T00:03:15.117Z,95726
2018-02-25T00:05:43.358Z,95729
2018-02-25T00:08:11.497Z,95737
2018-02-25T00:10:39.639Z,95729
2018-02-25T00:13:07.745Z,95734
2018-02-25T00:15:36.584Z,95741
2018-02-25T00:18:06.360Z,95738
2018-02-25T00:20:34.501Z,95745
2018-02-25T00:23:02.661Z,95728
2018-02-25T00:25:30.783Z,95735
2018-02-25T00:27:58.893Z,95732
2018-02-25T00:30:27.003Z,95730
2018-02-25T00:32:55.135Z,95735
2018-02-25T00:35:23.316Z,95724
2018-02-25T00:37:51.418Z,95730
2018-02-25T00:40:20.283Z,95726
2018-02-25T00:42:48.409Z,95720
2018-02-25T00:45:16.589Z,95722
2018-02-25T00:47:44.703Z,95719
2018-02-25T00:50:12.905Z,95725
2018-02-25T00:52:41.131Z,95725
2018-02-25T00:55:09.360Z,95711
2018-02-25T00:57:37.626Z,95717
2018-02-25T01:00:06.586Z,95720
2018-02-25T01:02:34.700Z,95720
2018-02-25T01:05:02.821Z,95706
2018-02-25T01:07:30.938Z,95705
2018-02-25T01:09:59.058Z,95706
2018-02-25T01:12:27.194Z,95710
2018-02-25T01:14:55.341Z,95724
2018-02-25T01:17:23.558Z,95714
2018-02-25T01:19:51.746Z,95722
2018-02-25T01:22:19.922Z,95728
2018-02-25T01:24:48.021Z,95720
2018-02-25T01:27:16.146Z,95724
2018-02-25T01:29:44.268Z,95724
2018-02-25T01:32:12.369Z,95727
2018-02-25T01:34:40.524Z,95726
2018-02-25T01:37:09.403Z,95725
2018-02-25T01:39:37.611Z,95728
2018-02-25T01:42:05.720Z,95727
2018-02-25T01:44:33.891Z,95729
2018-02-25T01:47:01.987Z,95726
2018-02-25T01:49:30.105Z,95728
2018-02-25T01:51:58.199Z,95728
2018-02-25T01:54:26.373Z,95716
2018-02-25T01:56:54.543Z,95709
2018-02-25T01:59:22.793Z,95705
2018-02-25T02:01:51.171Z,95711
2018-02-25T02:04:20.045Z,95718
2018-02-25T02:06:48.223Z,95721
2018-02-25T02:09:16.402Z,95726
2018-02-25T02:11:45.293Z,95709
2018-02-25T02:14:13.399Z,95715
2018-02-25T02:16:41.589Z,95719
2018-02-25T02:19:09.737Z,95715
2018-02-25T02:34:33.442Z,95729
2018-02-25T02:37:01.646Z,95722
2018-02-25T02:39:29.875Z,95724
2018-02-25T02:41:58.086Z,95720
2018-02-25T02:44:26.419Z,95724
2018-02-25T02:46:54.639Z,95725
2018-02-25T02:49:22.803Z,95717
2018-02-25T02:51:50.938Z,95722
2018-02-25T02:54:19.053Z,95708
2018-02-25T02:56:47.895Z,95706
2018-02-25T02:59:16.025Z,95716
2018-02-25T03:01:44.180Z,95727
2018-02-25T03:04:12.301Z,95722
2018-02-25T03:06:40.449Z,95719
2018-02-25T03:09:08.569Z,95714
2018-02-25T03:11:40.648Z,95720
2018-02-25T03:14:09.511Z,95718
2018-02-25T03:16:37.644Z,95711
2018-02-25T03:19:06.125Z,95726
2018-02-25T03:21:34.228Z,95709
2018-02-25T03:24:02.354Z,95714
2018-02-25T03:26:31.373Z,95729
2018-02-25T03:28:59.640Z,95723
2018-02-25T03:31:27.985Z,95727
2018-02-25T03:33:56.228Z,95730
2018-02-25T03:36:24.413Z,95733
2018-02-25T03:38:52.846Z,95724
2018-02-25T03:41:21.741Z,95733
2018-02-25T03:43:49.867Z,95733
2018-02-25T03:46:18.074Z,95732
2018-02-25T03:48:46.219Z,95739
2018-02-25T03:51:14.352Z,95737
2018-02-25T03:53:42.463Z,95730
2018-02-25T03:56:10.584Z,95731
2018-02-25T03:58:38.734Z,95734
2018-02-25T04:01:06.919Z,95722
2018-02-25T04:03:35.796Z,95729
2018-02-25T04:06:03.922Z,95736
2018-02-25T04:08:32.627Z,95739
2018-02-25T04:11:00.884Z,95732
2018-02-25T04:13:29.765Z,95735
2018-02-25T04:15:57.924Z,95737
2018-02-25T04:18:26.055Z,95743
2018-02-25T04:20:54.149Z,95745
2018-02-25T04:23:22.271Z,95739
2018-02-25T04:25:50.417Z,95747
2018-02-25T04:28:18.597Z,95749
2018-02-25T04:30:46.894Z,95745
2018-02-25T04:33:15.061Z,95753
2018-02-25T04:35:43.216Z,95759
2018-02-25T04:38:11.315Z,95742
2018-02-25T04:40:39.434Z,95744
2018-02-25T04:43:07.549Z,95757
2018-02-25T04:45:35.683Z,95753
2018-02-25T04:48:03.799Z,95763
2018-02-25T04:50:31.900Z,95762
2018-02-25T04:53:00.054Z,95759
2018-02-25T04:55:28.309Z,95757
2018-02-25T04:57:56.582Z,95757
2018-02-25T05:00:24.803Z,95756
2018-02-25T05:02:53.890Z,95760
2018-02-25T05:05:22.051Z,95764
2018-02-25T05:07:50.169Z,95775
2018-02-25T05:10:18.284Z,95769
2018-02-25T05:12:46.394Z,95754
2018-02-25T05:15:14.506Z,95760
2018-02-25T05:17:42.617Z,95751
2018-02-25T05:20:10.796Z,95768
2018-02-25T05:22:39.099Z,95753
2018-02-25T05:25:07.551Z,95758
2018-02-25T05:27:35.683Z,95760
2018-02-25T05:30:03.822Z,95767
2018-02-25T05:32:31.976Z,95761
2018-02-25T05:35:00.101Z,95767
2018-02-25T05:37:28.274Z,95769
2018-02-25T05:39:56.398Z,95763
2018-02-25T05:42:24.523Z,95775
2018-02-25T05:44:52.628Z,95756
2018-02-25T05:47:20.735Z,95772
2018-02-25T05:49:48.883Z,95768
2018-02-25T05:52:17.128Z,95763
2018-02-25T05:54:45.309Z,95773
2018-02-25T05:57:13.419Z,95769
2018-02-25T05:59:41.542Z,95769
2018-02-25T06:02:09.695Z,95766
2018-02-25T06:04:42.241Z,95767
2018-02-25T06:07:10.419Z,95777
2018-02-25T06:09:38.650Z,95767
2018-02-25T06:12:07.379Z,95773
2018-02-25T06:14:35.497Z,95780
2018-02-25T06:17:03.623Z,95775
2018-02-25T06:19:31.728Z,95781
2018-02-25T06:21:59.849Z,95786
2018-02-25T06:24:27.970Z,95785
2018-02-25T06:26:56.111Z,95776
2018-02-25T06:29:24.269Z,95785
2018-02-25T06:31:52.370Z,95785
2018-02-25T06:34:20.482Z,95785
2018-02-25T06:36:48.618Z,95777
2018-02-25T06:39:16.764Z,95785
2018-02-25T06:41:44.888Z,95793
2018-02-25T06:44:13.144Z,95783
2018-02-25T06:46:42.006Z,95784
2018-02-25T06:49:10.142Z,95785
2018-02-25T06:51:38.290Z,95785
2018-02-25T06:54:06.486Z,95784
2018-02-25T06:56:35.367Z,95791
2018-02-25T06:59:03.512Z,95789
2018-02-25T07:01:31.652Z,95778
2018-02-25T07:03:59.784Z,95794
2018-02-25T07:06:28.008Z,95800
2018-02-25T07:08:56.338Z,95792
2018-02-25T07:11:24.481Z,95793
2018-02-25T07:13:52.841Z,95795
2018-02-25T07:16:21.733Z,95796
2018-02-25T07:18:49.918Z,95797
2018-02-25T07:21:18.045Z,95789
2018-02-25T07:23:46.270Z,95786
2018-02-25T07:26:14.425Z,95780
2018-02-25T07:28:43.413Z,95785
2018-02-25T07:31:11.565Z,95784
2018-02-25T07:33:39.873Z,95784
2018-02-25T07:36:08.954Z,95782
2018-02-25T07:38:37.459Z,95783
2018-02-25T07:41:05.750Z,95776
2018-02-25T07:43:34.717Z,95773
2018-02-25T07:46:03.179Z,95773
2018-02-25T07:48:31.331Z,95778
2018-02-25T07:50:59.642Z,95776
2018-02-25T07:53:27.832Z,95777
2018-02-25T07:55:55.982Z,95772
2018-02-25T07:58:24.122Z,95772
2018-02-25T08:00:52.575Z,95775
2018-02-25T08:03:31.689Z,95769
2018-02-25T08:06:01.029Z,95770
2018-02-25T08:08:29.582Z,95778
2018-02-25T08:11:06.199Z,95780
2018-02-25T08:13:34.443Z,95772
2018-02-25T08:16:02.593Z,95780
2018-02-25T08:18:30.717Z,95780
2018-02-25T08:20:58.833Z,95775
2018-02-25T08:23:27.700Z,95780
2018-02-25T08:25:55.818Z,95790
2018-02-25T08:28:23.938Z,95783
2018-02-25T08:30:52.157Z,95784
2018-02-25T08:33:20.855Z,95787
2018-02-25T08:35:49.721Z,95786
2018-02-25T08:38:17.836Z,95786
2018-02-25T08:40:45.966Z,95780
2018-02-25T08:43:14.087Z,95799
2018-02-25T08:45:42.210Z,95777
2018-02-25T08:48:10.313Z,95782
2018-02-25T08:50:38.561Z,95780
2018-02-25T08:53:06.731Z,95782
2018-02-25T08:55:34.841Z,95779
2018-02-25T08:58:02.971Z,95782
2018-02-25T09:00:31.304Z,95778
2018-02-25T09:03:00.354Z,95775
2018-02-25T09:05:31.481Z,95775
2018-02-25T09:07:59.620Z,95772
2018-02-25T09:10:27.825Z,95772
2018-02-25T09:12:56.002Z,95774
2018-02-25T09:15:24.149Z,95765
2018-02-25T09:17:52.483Z,95784
2018-02-25T09:20:20.640Z,95788
2018-02-25T09:22:48.900Z,95774
2018-02-25T09:25:17.046Z,95781
2018-02-25T09:27:45.182Z,95777
2018-02-25T09:30:14.088Z,95773
2018-02-25T09:32:42.209Z,95778
2018-02-25T09:35:10.457Z,95781
2018-02-25T09:37:38.560Z,95775
2018-02-25T09:40:06.692Z,95771
2018-02-25T09:42:34.793Z,95764
2018-02-25T09:45:02.928Z,95776
2018-02-25T09:47:31.041Z,95764
2018-02-25T09:49:59.173Z,95769
2018-02-25T09:52:27.396Z,95774
2018-02-25T09:54:55.492Z,95757
2018-02-25T09:57:23.632Z,95764
2018-02-25T09:59:51.769Z,95760
2018-02-25T10:02:19.962Z,95761
2018-02-25T10:04:48.138Z,95755
2018-02-25T10:07:16.307Z,95766
2018-02-25T10:09:44.413Z,95765
2018-02-25T10:12:12.532Z,95751
2018-02-25T10:14:40.657Z,95755
2018-02-25T10:17:08.801Z,95757
2018-02-25T10:19:37.086Z,95753
2018-02-25T10:22:05.229Z,95758
2018-02-25T10:24:33.449Z,95750
2018-02-25T10:27:01.579Z,95749
2018-02-25T10:29:29.704Z,95750
2018-02-25T10:31:57.822Z,95748
2018-02-25T10:34:25.945Z,95744
2018-02-25T10:36:54.084Z,95744
2018-02-25T10:39:22.205Z,95733
2018-02-25T10:41:50.306Z,95737
2018-02-25T10:44:18.436Z,95737
2018-02-25T10:46:46.617Z,95728
2018-02-25T10:49:14.792Z,95733
2018-02-25T10:51:42.972Z,95729
2018-02-25T10:54:11.259Z,95723
2018-02-25T10:56:39.446Z,95729
2018-02-25T10:59:07.600Z,95720
2018-02-25T11:01:36.446Z,95720
2018-02-25T11:04:04.537Z,95715
2018-02-25T11:06:32.952Z,95710
2018-02-25T11:09:01.113Z,95695
2018-02-25T11:11:29.243Z,95702
2018-02-25T11:13:57.390Z,95707
2018-02-25T11:16:25.837Z,95702
2018-02-25T11:18:53.937Z,95693
2018-02-25T11:21:22.100Z,95691
2018-02-25T11:23:50.202Z,95714
2018-02-25T11:26:18.304Z,95695
2018-02-25T11:28:46.449Z,95697
2018-02-25T11:31:14.566Z,95698
2018-02-25T11:33:43.456Z,95708
2018-02-25T11:36:11.604Z,95703
2018-02-25T11:38:39.700Z,95700
2018-02-25T11:41:07.879Z,95694
2018-02-25T11:43:35.987Z,95699
2018-02-25T11:46:04.148Z,95688
2018-02-25T11:48:32.308Z,95685
2018-02-25T11:51:00.405Z,95698
2018-02-25T11:53:28.554Z,95687
2018-02-25T11:55:56.673Z,95685
2018-02-25T11:58:24.862Z,95694
2018-02-25T12:00:53.172Z,95683
2018-02-25T12:03:21.359Z,95689
2018-02-25T12:05:49.554Z,95680
2018-02-25T12:08:17.714Z,95681
2018-02-25T12:10:45.805Z,95686
2018-02-25T12:13:13.922Z,95676
2018-02-25T12:15:42.105Z,95678
2018-02-25T12:18:10.216Z,95673
2018-02-25T12:20:38.323Z,95675
2018-02-25T12:23:06.414Z,95676
2018-02-25T12:25:34.518Z,95666
2018-02-25T12:28:02.612Z,95671
2018-02-25T12:30:31.460Z,95664
2018-02-25T12:33:00.321Z,95670
2018-02-25T12:35:28.455Z,95669
2018-02-25T12:37:56.531Z,95654
2018-02-25T12:40:24.641Z,95651
2018-02-25T12:42:52.732Z,95660
2018-02-25T12:45:20.855Z,95645
2018-02-25T12:47:48.958Z,95654
2018-02-25T12:50:17.132Z,95648
2018-02-25T12:52:45.235Z,95640
2018-02-25T12:55:13.345Z,95649
2018-02-25T12:57:41.470Z,95643
2018-02-25T13:00:13.785Z,95646
2018-02-25T13:02:41.921Z,95634
2018-02-25T13:05:10.806Z,95636
2018-02-25T13:07:38.912Z,95632
2018-02-25T13:10:07.040Z,95640
2018-02-25T13:12:35.130Z,95635
2018-02-25T13:15:03.238Z,95638
2018-02-25T13:17:31.375Z,95632
2018-02-25T13:19:59.622Z,95624
2018-02-25T13:22:27.753Z,95634
2018-02-25T13:24:55.889Z,95613
2018-02-25T13:27:24.011Z,95633
2018-02-25T13:29:52.125Z,95630
2018-02-25T13:32:20.294Z,95619
2018-02-25T13:34:48.473Z,95618
2018-02-25T13:37:16.665Z,95611
2018-02-25T13:39:44.972Z,95607
2018-02-25T13:42:13.116Z,95609
2018-02-25T13:44:41.261Z,95621
2018-02-25T13:47:09.399Z,95609
2018-02-25T13:49:37.572Z,95620
2018-02-25T13:52:05.663Z,95613
2018-02-25T13:54:33.793Z,95613
2018-02-25T13:57:04.200Z,95608
2018-02-25T13:59:40.308Z,95612
2018-02-25T14:02:08.432Z,95621
2018-02-25T14:04:40.960Z,95618
2018-02-25T14:07:09.111Z,95621
2018-02-25T14:09:37.216Z,95613
2018-02-25T14:12:05.362Z,95615
2018-02-25T14:14:33.488Z,95619
2018-02-25T14:17:01.583Z,95619
2018-02-25T14:19:29.690Z,95620
2018-02-25T14:21:57.829Z,95623
2018-02-25T14:24:27.248Z,95619
2018-02-25T14:26:55.310Z,95623
2018-02-25T14:29:23.423Z,95616
2018-02-25T14:31:51.530Z,95616
2018-02-25T14:34:19.635Z,95617
2018-02-25T14:36:47.797Z,95605
2018-02-25T14:39:15.902Z,95609
2018-02-25T14:41:44.015Z,95617
2018-02-25T14:44:12.131Z,95622
2018-02-25T14:46:40.277Z,95620
2018-02-25T14:49:08.429Z,95622
2018-02-25T14:51:37.595Z,95628
2018-02-25T14:54:05.923Z,95629
2018-02-25T14:56:34.038Z,95626
2018-02-25T14:59:02.173Z,95632
2018-02-25T15:01:31.056Z,95624
2018-02-25T15:04:00.008Z,95626
2018-02-25T15:06:28.146Z,95620
2018-02-25T15:08:56.355Z,95634
2018-02-25T15:11:24.497Z,95629
2018-02-25T15:13:52.649Z,95631
2018-02-25T15:16:22.207Z,95626
2018-02-25T15:18:50.368Z,95622
2018-02-25T15:21:18.512Z,95627
2018-02-25T15:23:46.604Z,95623
2018-02-25T15:26:14.736Z,95624
2018-02-25T15:28:42.886Z,95615
2018-02-25T15:31:11.856Z,95630
2018-02-25T15:33:40.911Z,95631
2018-02-25T15:36:09.803Z,95632
2018-02-25T15:38:38.049Z,95631
2018-02-25T15:41:06.190Z,95634
2018-02-25T15:43:34.317Z,95644
2018-02-25T15:46:02.459Z,95635
2018-02-25T15:48:30.671Z,95636
2018-02-25T15:50:58.893Z,95643
2018-02-25T15:53:29.265Z,95635
2018-02-25T15:55:57.395Z,95645
2018-02-25T15:58:25.523Z,95647
2018-02-25T16:01:01.489Z,95637
2018-02-25T16:03:29.583Z,95647
2018-02-25T16:05:57.747Z,95652
2018-02-25T16:08:25.864Z,95654
2018-02-25T16:10:53.972Z,95656
2018-02-25T16:13:22.105Z,95648
2018-02-25T16:15:50.223Z,95657
2018-02-25T16:18:18.347Z,95653
2018-02-25T16:20:46.500Z,95667
2018-02-25T16:23:14.682Z,95658
2018-02-25T16:25:42.879Z,95658
2018-02-25T16:28:11.123Z,95673
2018-02-25T16:30:39.754Z,95680
2018-02-25T16:33:07.908Z,95674
2018-02-25T16:35:40.869Z,95675
2018-02-25T16:38:09.012Z,95678
2018-02-25T16:40:37.146Z,95682
2018-02-25T16:43:05.447Z,95668
2018-02-25T16:45:33.724Z,95678
2018-02-25T16:48:01.963Z,95679
2018-02-25T16:50:30.856Z,95682
2018-02-25T16:52:59.025Z,95683
2018-02-25T16:55:27.169Z,95688
2018-02-25T16:57:55.315Z,95690
2018-02-25T17:00:23.442Z,95695
2018-02-25T17:02:51.598Z,95694
2018-02-25T17:05:19.767Z,95707
2018-02-25T17:07:48.217Z,95703
2018-02-25T17:10:16.797Z,95700
2018-02-25T17:12:44.931Z,95700
2018-02-25T17:15:13.089Z,95697
2018-02-25T17:17:41.214Z,95706
2018-02-25T17:20:10.131Z,95695
2018-02-25T17:22:38.250Z,95701
2018-02-25T17:25:06.413Z,95715
2018-02-25T17:27:34.583Z,95711
2018-02-25T17:30:02.712Z,95705
2018-02-25T17:32:30.821Z,95722
2018-02-25T17:34:58.952Z,95716
2018-02-25T17:37:27.077Z,95720
2018-02-25T17:39:56.208Z,95727
2018-02-25T17:42:24.384Z,95716
2018-02-25T17:44:53.682Z,95715
2018-02-25T17:47:21.801Z,95721
2018-02-25T17:49:50.755Z,95720
2018-02-25T17:52:18.876Z,95725
2018-02-25T17:54:46.979Z,95726
2018-02-25T17:57:15.886Z,95728
2018-02-25T17:59:44.108Z,95721
2018-02-25T18:02:12.360Z,95722
2018-02-25T18:04:40.506Z,95726
2018-02-25T18:07:09.400Z,95722
2018-02-25T18:09:37.532Z,95710
2018-02-25T18:25:00.699Z,95741
2018-02-25T18:27:29.642Z,95731
2018-02-25T18:29:57.839Z,95737
2018-02-25T18:32:25.979Z,95732
2018-02-25T18:34:54.101Z,95750
2018-02-25T18:37:22.243Z,95733
2018-02-25T18:39:50.375Z,95735
2018-02-25T18:42:18.543Z,95732
2018-02-25T18:44:46.682Z,95743
2018-02-25T18:47:14.830Z,95751
2018-02-25T18:49:43.300Z,95745
2018-02-25T18:52:11.435Z,95754
2018-02-25T18:54:39.605Z,95749
2018-02-25T18:57:08.616Z,95744
2018-02-25T18:59:36.725Z,95760
2018-02-25T19:02:05.690Z,95758
2018-02-25T19:04:33.795Z,95745
2018-02-25T19:07:01.900Z,95763
2018-02-25T19:09:30.067Z,95755
2018-02-25T19:11:58.247Z,95759
2018-02-25T19:14:26.384Z,95752
2018-02-25T19:16:54.489Z,95766
2018-02-25T19:19:22.616Z,95757
2018-02-25T19:21:50.748Z,95754
2018-02-25T19:24:18.912Z,95751
2018-02-25T19:26:47.817Z,95758
2018-02-25T19:29:16.056Z,95758
2018-02-25T19:31:44.953Z,95753
2018-02-25T19:34:13.083Z,95760
2018-02-25T19:36:47.547Z,95753
2018-02-25T19:39:22.104Z,95761
2018-02-25T19:41:54.963Z,95764
2018-02-25T19:44:23.138Z,95771
2018-02-25T19:46:51.343Z,95763
2018-02-25T19:49:19.639Z,95764
2018-02-25T19:51:48.597Z,95767
2018-02-25T19:54:16.760Z,95770
2018-02-25T19:56:49.005Z,95769
2018-02-25T19:59:17.143Z,95772
2018-02-25T20:01:45.260Z,95775
2018-02-25T20:04:13.393Z,95777
2018-02-25T20:06:41.522Z,95766
2018-02-25T20:09:09.698Z,95778
2018-02-25T20:11:37.831Z,95773
2018-02-25T20:14:06.048Z,95773
2018-02-25T20:16:34.179Z,95769
2018-02-25T20:19:02.338Z,95762
2018-02-25T20:21:31.509Z,95775
2018-02-25T20:23:59.704Z,95768
2018-02-25T20:26:27.850Z,95774
2018-02-25T20:28:56.675Z,95775
2018-02-25T20:31:29.048Z,95773
2018-02-25T20:33:57.166Z,95774
2018-02-25T20:36:25.291Z,95767
2018-02-25T20:38:53.408Z,95768
2018-02-25T20:41:21.841Z,95775
2018-02-25T20:43:49.944Z,95769
2018-02-25T20:46:18.070Z,95769
2018-02-25T20:48:46.360Z,95771
2018-02-25T20:51:14.468Z,95771
2018-02-25T20:53:42.610Z,95766
2018-02-25T20:56:10.732Z,95761
2018-02-25T20:58:39.468Z,95766
2018-02-25T21:01:07.593Z,95781
2018-02-25T21:03:35.736Z,95758
2018-02-25T21:06:03.928Z,95762
2018-02-25T21:08:32.346Z,95754
2018-02-25T21:11:00.459Z,95763
2018-02-25T21:13:28.599Z,95763
2018-02-25T21:15:57.137Z,95759
2018-02-25T21:18:25.264Z,95761
2018-02-25T21:20:53.859Z,95764
2018-02-25T21:23:22.011Z,95761
2018-02-25T21:25:50.177Z,95755
2018-02-25T21:28:18.454Z,95752
2018-02-25T21:30:46.653Z,95762
2018-02-25T21:33:14.779Z,95765
2018-02-25T21:48:37.989Z,95768
2018-02-25T21:51:06.098Z,95752
2018-02-25T21:53:39.799Z,95756
2018-02-25T21:56:14.223Z,95755
2018-02-25T21:58:48.868Z,95753
2018-02-25T22:01:23.002Z,95740
2018-02-25T22:03:56.632Z,95747
2018-02-25T22:06:25.331Z,95754
2018-02-25T22:08:53.540Z,95738
2018-02-25T22:11:21.746Z,95756
2018-02-25T22:13:49.899Z,95745
2018-02-25T22:16:18.092Z,95751
2018-02-25T22:18:46.202Z,95743
2018-02-25T22:21:14.338Z,95748
2018-02-25T22:23:42.443Z,95744
2018-02-25T22:26:10.569Z,95736
2018-02-25T22:28:38.692Z,95749
2018-02-25T22:31:06.850Z,95737
2018-02-25T22:33:35.082Z,95745
2018-02-25T22:36:04.187Z,95741
2018-02-25T22:38:32.362Z,95742
2018-02-25T22:41:00.475Z,95738
2018-02-25T22:43:28.595Z,95739
2018-02-25T22:45:56.714Z,95730
2018-02-25T22:48:24.837Z,95741
2018-02-25T22:50:52.961Z,95732
2018-02-25T22:53:21.072Z,95734
2018-02-25T22:55:49.285Z,95736
2018-02-25T22:58:17.407Z,95730
2018-02-25T23:00:45.587Z,95734
2018-02-25T23:03:13.703Z,95732
2018-02-25T23:05:41.815Z,95735
2018-02-25T23:08:09.939Z,95730
2018-02-25T23:10:38.111Z,95726
2018-02-25T23:13:06.236Z,95729
2018-02-25T23:15:34.408Z,95723
2018-02-25T23:18:02.563Z,95720
2018-02-25T23:20:31.464Z,95728
2018-02-25T23:22:59.648Z,95724
2018-02-25T23:25:27.757Z,95734
2018-02-25T23:27:55.893Z,95728
2018-02-25T23:30:23.992Z,95722
2018-02-25T23:32:52.179Z,95729
2018-02-25T23:35:20.327Z,95736
2018-02-25T23:37:48.528Z,95728
2018-02-25T23:40:16.760Z,95716
2018-02-25T23:42:45.064Z,95724
2018-02-25T23:45:13.322Z,95725
2018-02-25T23:47:41.520Z,95719
2018-02-25T23:50:09.704Z,95721
2018-02-25T23:52:37.835Z,95720
2018-02-25T23:55:05.954Z,95722
2018-02-25T23:57:34.052Z,95716
